createdAt,value
2018-04-13T00:00:36.095Z,66.70
2018-04-13T00:01:40.582Z,64.80
2018-04-13T00:02:44.680Z,63.50
2018-04-13T00:03:49.101Z,61.15
2018-04-13T00:04:53.430Z,58.35
2018-04-13T00:05:57.613Z,62.30
2018-04-13T00:07:01.722Z,61.42
2018-04-13T00:08:06.656Z,60.00
2018-04-13T00:09:11.135Z,63.20
2018-04-13T00:10:15.246Z,54.83
2018-04-13T00:11:19.348Z,57.17
2018-04-13T00:12:23.462Z,53.30
2018-04-13T00:13:29.019Z,57.22
2018-04-13T00:14:36.890Z,54.72
2018-04-13T00:15:42.974Z,51.03
2018-04-13T00:16:47.943Z,49.55
2018-04-13T00:17:52.088Z,51.58
2018-04-13T00:18:56.194Z,50.38
2018-04-13T00:20:00.336Z,50.38
2018-04-13T00:21:05.007Z,46.13
2018-04-13T00:22:09.110Z,52.15
2018-04-13T00:23:13.234Z,51.37
2018-04-13T00:24:18.685Z,49.75
2018-04-13T00:25:22.828Z,47.62
2018-04-13T00:26:26.941Z,47.35
2018-04-13T00:27:31.049Z,46.55
2018-04-13T00:28:35.876Z,46.78
2018-04-13T00:29:40.799Z,42.95
2018-04-13T00:30:44.941Z,45.08
2018-04-13T00:31:49.500Z,48.72
2018-04-13T00:32:54.150Z,40.88
2018-04-13T00:33:59.534Z,47.28
2018-04-13T00:35:04.186Z,43.92
2018-04-13T00:36:08.401Z,41.55
2018-04-13T00:37:13.261Z,38.50
2018-04-13T00:38:17.378Z,38.85
2018-04-13T00:39:22.378Z,39.08
2018-04-13T00:40:26.844Z,40.75
2018-04-13T00:41:31.735Z,37.20
2018-04-13T00:42:36.289Z,42.95
2018-04-13T00:43:41.418Z,35.67
2018-04-13T00:44:46.334Z,36.85
2018-04-13T00:45:51.228Z,36.58
2018-04-13T00:46:55.342Z,36.40
2018-04-13T00:47:59.525Z,38.80
2018-04-13T00:49:04.514Z,36.03
2018-04-13T00:50:08.629Z,36.72
2018-04-13T00:51:12.757Z,35.88
2018-04-13T00:52:16.834Z,35.30
2018-04-13T00:53:36.633Z,34.20
2018-04-13T00:54:41.011Z,38.83
2018-04-13T00:55:45.106Z,32.67
2018-04-13T00:56:49.236Z,32.80
2018-04-13T00:57:53.344Z,34.67
2018-04-13T00:58:57.472Z,34.72
2018-04-13T01:00:03.439Z,34.80
2018-04-13T01:01:09.298Z,35.90
2018-04-13T01:02:13.412Z,33.30
2018-04-13T01:03:17.542Z,32.85
2018-04-13T01:04:21.717Z,31.85
2018-04-13T01:05:25.949Z,34.33
2018-04-13T01:06:30.181Z,29.73
2018-04-13T01:07:37.272Z,30.35
2018-04-13T01:08:42.177Z,35.05
2018-04-13T01:09:47.244Z,33.55
2018-04-13T01:10:51.390Z,27.48
2018-04-13T01:11:55.502Z,34.42
2018-04-13T01:12:59.735Z,30.50
2018-04-13T01:14:04.566Z,29.63
2018-04-13T01:15:08.783Z,36.25
2018-04-13T01:16:12.941Z,30.23
2018-04-13T01:17:18.184Z,28.58
2018-04-13T01:18:23.159Z,28.05
2018-04-13T01:19:27.265Z,29.30
2018-04-13T01:20:31.390Z,26.48
2018-04-13T01:21:36.280Z,28.10
2018-04-13T01:22:40.402Z,28.35
2018-04-13T01:23:44.520Z,24.55
2018-04-13T01:24:48.908Z,25.98
2018-04-13T01:25:53.017Z,28.30
2018-04-13T01:26:57.977Z,24.87
2018-04-13T01:28:03.582Z,26.37
2018-04-13T01:29:07.713Z,24.37
2018-04-13T01:30:13.337Z,29.98
2018-04-13T01:31:18.550Z,23.92
2018-04-13T01:32:22.803Z,25.37
2018-04-13T01:33:27.741Z,28.12
2018-04-13T01:34:32.511Z,26.90
2018-04-13T01:35:37.292Z,29.12
2018-04-13T01:36:42.143Z,22.75
2018-04-13T01:37:46.262Z,27.30
2018-04-13T01:38:51.086Z,29.15
2018-04-13T01:39:55.986Z,24.87
2018-04-13T01:41:00.092Z,29.35
2018-04-13T01:42:05.830Z,25.23
2018-04-13T01:43:09.925Z,23.08
2018-04-13T01:44:14.035Z,21.98
2018-04-13T01:45:18.179Z,25.62
2018-04-13T01:46:22.286Z,22.70
2018-04-13T01:47:26.429Z,22.08
2018-04-13T01:48:30.528Z,21.17
2018-04-13T01:49:34.621Z,24.05
2018-04-13T01:50:38.836Z,20.27
2018-04-13T01:51:43.348Z,21.05
2018-04-13T01:52:47.478Z,23.65
2018-04-13T01:53:52.367Z,19.33
2018-04-13T01:54:56.440Z,21.35
2018-04-13T01:56:01.618Z,18.95
2018-04-13T01:57:06.502Z,23.00
2018-04-13T01:58:10.614Z,25.02
2018-04-13T01:59:14.750Z,21.62
2018-04-13T02:00:19.608Z,23.02
2018-04-13T02:01:23.705Z,21.80
2018-04-13T02:02:27.830Z,24.25
2018-04-13T02:03:31.954Z,22.15
2018-04-13T02:04:36.068Z,20.40
2018-04-13T02:05:40.199Z,20.85
2018-04-13T02:06:45.785Z,21.70
2018-04-13T02:07:50.187Z,18.55
2018-04-13T02:08:54.311Z,24.27
2018-04-13T02:09:58.485Z,19.75
2018-04-13T02:11:03.396Z,20.70
2018-04-13T02:12:07.556Z,18.05
2018-04-13T02:13:11.711Z,20.73
2018-04-13T02:14:16.360Z,22.55
2018-04-13T02:15:20.679Z,18.77
2018-04-13T02:16:24.683Z,19.70
2018-04-13T02:17:29.645Z,19.40
2018-04-13T02:18:33.699Z,18.15
2018-04-13T02:19:37.763Z,20.98
2018-04-13T02:20:41.750Z,16.98
2018-04-13T02:21:45.749Z,18.42
2018-04-13T02:22:49.878Z,19.23
2018-04-13T02:23:53.834Z,21.95
2018-04-13T02:24:58.084Z,19.12
2018-04-13T02:26:02.064Z,19.05
2018-04-13T02:27:07.065Z,14.90
2018-04-13T02:28:11.205Z,14.57
2018-04-13T02:29:15.174Z,14.90
2018-04-13T02:30:19.131Z,17.50
2018-04-13T02:31:23.169Z,19.42
2018-04-13T02:32:27.257Z,17.30
2018-04-13T02:33:32.027Z,21.60
2018-04-13T02:34:36.040Z,16.85
2018-04-13T02:35:40.031Z,18.92
2018-04-13T02:36:44.008Z,19.65
2018-04-13T02:37:48.254Z,16.40
2018-04-13T02:38:52.878Z,16.70
2018-04-13T02:39:56.972Z,17.17
2018-04-13T02:41:01.046Z,17.75
2018-04-13T02:42:05.826Z,15.15
2018-04-13T02:43:09.788Z,16.15
2018-04-13T02:44:13.772Z,16.50
2018-04-13T02:45:18.223Z,16.60
2018-04-13T02:46:23.029Z,15.80
2018-04-13T02:47:27.021Z,15.93
2018-04-13T02:48:31.029Z,17.12
2018-04-13T02:49:35.766Z,18.02
2018-04-13T02:50:40.525Z,14.80
2018-04-13T02:51:44.501Z,16.95
2018-04-13T02:52:48.505Z,16.50
2018-04-13T02:53:52.445Z,15.13
2018-04-13T02:54:56.371Z,15.40
2018-04-13T02:56:01.086Z,20.65
2018-04-13T02:57:06.966Z,17.48
2018-04-13T02:58:10.984Z,18.12
2018-04-13T02:59:15.298Z,15.73
2018-04-13T03:00:19.258Z,16.85
2018-04-13T03:01:23.549Z,14.90
2018-04-13T03:02:28.301Z,17.12
2018-04-13T03:03:32.266Z,17.30
2018-04-13T03:04:37.072Z,13.82
2018-04-13T03:05:41.049Z,14.73
2018-04-13T03:06:45.313Z,15.13
2018-04-13T03:07:49.279Z,14.75
2018-04-13T03:08:54.040Z,19.17
2018-04-13T03:09:58.028Z,14.73
2018-04-13T03:11:02.000Z,16.67
2018-04-13T03:12:07.342Z,15.90
2018-04-13T03:13:11.375Z,19.05
2018-04-13T03:14:15.362Z,19.60
2018-04-13T03:15:19.295Z,14.23
2018-04-13T03:16:23.807Z,16.92
2018-04-13T03:17:27.765Z,17.52
2018-04-13T03:18:31.726Z,16.42
2018-04-13T03:19:35.726Z,13.55
2018-04-13T03:20:39.669Z,13.18
2018-04-13T03:21:43.627Z,14.63
2018-04-13T03:22:48.430Z,13.85
2018-04-13T03:23:54.223Z,14.07
2018-04-13T03:24:58.217Z,13.68
2018-04-13T03:26:02.507Z,17.25
2018-04-13T03:27:06.816Z,18.02
2018-04-13T03:28:11.552Z,12.52
2018-04-13T03:29:15.532Z,13.50
2018-04-13T03:30:20.237Z,13.15
2018-04-13T03:31:24.255Z,14.25
2018-04-13T03:34:25.356Z,13.93
2018-04-13T03:35:29.535Z,16.50
2018-04-13T03:36:33.921Z,14.32
2018-04-13T03:37:37.914Z,13.02
2018-04-13T03:38:42.733Z,12.82
2018-04-13T03:39:47.790Z,13.62
2018-04-13T03:40:52.768Z,15.50
2018-04-13T03:41:57.657Z,16.73
2018-04-13T03:43:01.613Z,16.65
2018-04-13T03:44:06.169Z,16.27
2018-04-13T03:45:10.606Z,13.60
2018-04-13T03:46:15.368Z,14.25
2018-04-13T03:47:19.402Z,16.02
2018-04-13T03:48:24.378Z,13.13
2018-04-13T03:49:28.349Z,15.60
2018-04-13T03:50:33.837Z,12.57
2018-04-13T03:51:37.846Z,14.50
2018-04-13T03:52:41.910Z,14.77
2018-04-13T03:53:45.889Z,16.00
2018-04-13T03:54:50.203Z,13.30
2018-04-13T03:55:54.973Z,15.20
2018-04-13T03:56:58.971Z,16.77
2018-04-13T03:58:03.521Z,13.70
2018-04-13T03:59:08.350Z,18.25
2018-04-13T04:00:13.093Z,15.75
2018-04-13T04:01:17.851Z,13.23
2018-04-13T04:02:22.585Z,18.12
2018-04-13T04:03:29.059Z,12.32
2018-04-13T04:04:34.825Z,15.07
2018-04-13T04:05:39.709Z,14.65
2018-04-13T04:06:44.814Z,15.02
2018-04-13T04:07:48.978Z,16.23
2018-04-13T04:08:53.839Z,12.52
2018-04-13T04:09:58.526Z,12.40
2018-04-13T04:11:04.755Z,14.23
2018-04-13T04:12:09.696Z,13.18
2018-04-13T04:13:16.417Z,12.32
2018-04-13T04:14:22.538Z,14.63
2018-04-13T04:15:27.434Z,16.25
2018-04-13T04:16:32.460Z,13.05
2018-04-13T04:17:36.749Z,14.05
2018-04-13T04:18:42.003Z,14.30
2018-04-13T04:19:56.660Z,10.50
2018-04-13T04:23:16.487Z,14.82
2018-04-13T04:24:33.338Z,13.25
2018-04-13T04:25:43.451Z,12.85
2018-04-13T04:26:48.918Z,13.70
2018-04-13T04:27:53.434Z,18.87
2018-04-13T04:28:57.437Z,15.23
2018-04-13T04:30:03.920Z,14.95
2018-04-13T04:31:08.900Z,14.32
2018-04-13T04:32:13.435Z,12.48
2018-04-13T04:33:18.220Z,13.32
2018-04-13T04:34:23.234Z,13.80
2018-04-13T04:35:28.556Z,10.48
2018-04-13T04:36:33.240Z,12.77
2018-04-13T04:37:39.414Z,13.40
2018-04-13T04:38:45.056Z,15.23
2018-04-13T04:39:51.529Z,14.25
2018-04-13T04:40:56.548Z,14.27
2018-04-13T04:42:01.355Z,14.52
2018-04-13T04:43:06.885Z,10.57
2018-04-13T04:44:12.549Z,14.27
2018-04-13T04:45:18.642Z,12.68
2018-04-13T04:46:23.597Z,15.02
2018-04-13T04:47:30.101Z,13.55
2018-04-13T04:48:35.020Z,16.20
2018-04-13T04:49:39.600Z,16.65
2018-04-13T04:50:44.654Z,18.87
2018-04-13T04:51:49.476Z,12.48
2018-04-13T04:52:54.103Z,14.07
2018-04-13T04:54:00.390Z,12.93
2018-04-13T04:55:05.870Z,13.38
2018-04-13T04:56:10.847Z,10.25
2018-04-13T04:57:16.348Z,18.58
2018-04-13T04:58:21.272Z,12.55
2018-04-13T04:59:25.757Z,11.40
2018-04-13T05:00:30.951Z,13.95
2018-04-13T05:01:38.090Z,13.52
2018-04-13T05:02:43.590Z,11.43
2018-04-13T05:03:47.904Z,15.65
2018-04-13T05:04:52.638Z,12.43
2018-04-13T05:05:57.471Z,13.00
2018-04-13T05:07:01.465Z,14.48
2018-04-13T05:08:08.062Z,12.52
2018-04-13T05:09:12.969Z,10.65
2018-04-13T05:10:18.434Z,13.60
2018-04-13T05:11:23.324Z,12.75
2018-04-13T05:12:27.959Z,14.10
2018-04-13T05:13:34.848Z,14.73
2018-04-13T05:14:41.075Z,11.10
2018-04-13T05:15:45.991Z,16.00
2018-04-13T05:16:52.044Z,14.27
2018-04-13T05:17:56.913Z,13.68
2018-04-13T05:19:01.683Z,11.38
2018-04-13T05:20:07.445Z,12.70
2018-04-13T05:21:14.371Z,11.52
2018-04-13T05:22:19.062Z,10.38
2018-04-13T05:23:23.558Z,11.98
2018-04-13T05:24:28.334Z,10.50
2018-04-13T05:25:32.810Z,9.98
2018-04-13T05:26:38.588Z,11.57
2018-04-13T05:27:43.035Z,11.68
2018-04-13T05:28:48.189Z,14.20
2018-04-13T05:29:52.501Z,10.63
2018-04-13T05:30:56.730Z,11.93
2018-04-13T05:32:03.686Z,11.15
2018-04-13T05:33:09.866Z,12.02
2018-04-13T05:34:14.653Z,13.75
2018-04-13T05:35:19.522Z,11.90
2018-04-13T05:36:25.830Z,12.90
2018-04-13T05:37:30.609Z,13.02
2018-04-13T05:38:36.250Z,10.07
2018-04-13T05:39:41.036Z,11.70
2018-04-13T05:40:46.543Z,13.40
2018-04-13T05:41:50.526Z,11.65
2018-04-13T05:42:55.350Z,16.20
2018-04-13T05:44:01.525Z,14.55
2018-04-13T05:45:07.358Z,12.60
2018-04-13T05:46:12.584Z,10.98
2018-04-13T05:47:16.758Z,12.55
2018-04-13T05:48:21.680Z,12.25
2018-04-13T05:49:26.466Z,10.88
2018-04-13T05:50:32.049Z,10.07
2018-04-13T05:51:36.780Z,14.07
2018-04-13T05:52:43.148Z,14.68
2018-04-13T05:53:47.246Z,13.60
2018-04-13T05:54:53.074Z,12.18
2018-04-13T05:55:57.487Z,10.05
2018-04-13T05:57:01.754Z,13.45
2018-04-13T05:58:06.664Z,11.88
2018-04-13T05:59:10.738Z,14.57
2018-04-13T06:00:15.439Z,10.90
2018-04-13T06:01:20.806Z,15.70
2018-04-13T06:02:25.653Z,13.40
2018-04-13T06:03:32.760Z,12.02
2018-04-13T06:04:36.803Z,10.40
2018-04-13T06:05:41.856Z,13.13
2018-04-13T06:06:46.789Z,13.13
2018-04-13T06:07:50.875Z,12.63
2018-04-13T06:08:55.724Z,14.63
2018-04-13T06:10:00.449Z,17.45
2018-04-13T06:11:07.256Z,11.95
2018-04-13T06:12:13.133Z,14.43
2018-04-13T06:13:20.023Z,14.02
2018-04-13T06:14:24.042Z,12.32
2018-04-13T06:15:29.005Z,12.95
2018-04-13T06:16:33.786Z,14.23
2018-04-13T06:17:37.835Z,12.05
2018-04-13T06:18:42.886Z,17.02
2018-04-13T06:19:49.050Z,11.60
2018-04-13T06:20:54.039Z,12.15
2018-04-13T06:22:00.633Z,12.50
2018-04-13T06:23:08.690Z,12.40
2018-04-13T06:24:13.631Z,13.25
2018-04-13T06:25:18.407Z,10.10
2018-04-13T06:26:22.703Z,17.23
2018-04-13T06:27:30.443Z,12.13
2018-04-13T06:28:34.555Z,13.88
2018-04-13T06:29:39.911Z,10.48
2018-04-13T06:30:45.263Z,13.00
2018-04-13T06:31:52.322Z,15.15
2018-04-13T06:33:00.214Z,13.50
2018-04-13T06:34:06.969Z,13.30
2018-04-13T06:35:13.034Z,10.70
2018-04-13T06:36:18.905Z,13.77
2018-04-13T06:37:24.015Z,17.35
2018-04-13T06:38:28.882Z,13.68
2018-04-13T06:39:33.699Z,13.57
2018-04-13T06:40:37.782Z,11.90
2018-04-13T06:41:42.587Z,11.30
2018-04-13T06:42:47.440Z,13.95
2018-04-13T06:43:51.791Z,12.40
2018-04-13T06:44:58.738Z,16.20
2018-04-13T06:46:06.081Z,12.75
2018-04-13T06:47:11.351Z,13.68
2018-04-13T06:48:16.001Z,12.80
2018-04-13T06:49:20.589Z,13.62
2018-04-13T06:50:27.530Z,12.35
2018-04-13T06:51:31.908Z,16.80
2018-04-13T06:52:36.749Z,18.45
2018-04-13T06:53:41.760Z,13.82
2018-04-13T06:54:47.421Z,12.25
2018-04-13T06:55:52.728Z,16.15
2018-04-13T06:56:57.577Z,12.37
2018-04-13T06:58:05.507Z,11.30
2018-04-13T06:59:10.924Z,13.75
2018-04-13T07:00:16.818Z,12.40
2018-04-13T07:01:23.024Z,13.52
2018-04-13T07:02:29.050Z,15.93
2018-04-13T07:03:33.236Z,10.95
2018-04-13T07:04:38.143Z,15.15
2018-04-13T07:05:43.303Z,11.85
2018-04-13T07:06:50.095Z,14.63
2018-04-13T07:07:55.206Z,11.05
2018-04-13T07:09:01.001Z,13.18
2018-04-13T07:10:06.055Z,14.30
2018-04-13T07:11:10.740Z,13.82
2018-04-13T07:12:15.210Z,11.88
2018-04-13T07:13:20.892Z,14.50
2018-04-13T07:14:24.949Z,15.35
2018-04-13T07:15:31.119Z,13.13
2018-04-13T07:16:35.994Z,16.95
2018-04-13T07:17:40.067Z,13.30
2018-04-13T07:18:44.451Z,13.13
2018-04-13T07:19:48.836Z,12.68
2018-04-13T07:20:53.758Z,13.95
2018-04-13T07:21:58.602Z,10.05
2018-04-13T07:23:04.737Z,12.63
2018-04-13T07:24:10.006Z,17.45
2018-04-13T07:25:16.698Z,14.50
2018-04-13T07:26:21.566Z,14.93
2018-04-13T07:27:25.896Z,14.55
2018-04-13T07:28:29.947Z,13.62
2018-04-13T07:29:37.114Z,18.00
2018-04-13T07:30:42.123Z,16.27
2018-04-13T07:31:46.132Z,16.23
2018-04-13T07:32:51.077Z,14.85
2018-04-13T07:33:55.883Z,13.07
2018-04-13T07:35:02.929Z,13.02
2018-04-13T07:36:07.450Z,15.52
2018-04-13T07:37:12.792Z,13.20
2018-04-13T07:38:18.706Z,14.45
2018-04-13T07:39:25.098Z,14.43
2018-04-13T07:40:29.900Z,14.82
2018-04-13T07:41:35.589Z,15.82
2018-04-13T07:42:40.912Z,14.30
2018-04-13T07:43:46.462Z,13.77
2018-04-13T07:44:50.869Z,14.82
2018-04-13T07:45:56.380Z,16.20
2018-04-13T07:48:13.385Z,15.48
2018-04-13T07:49:18.271Z,15.35
2018-04-13T07:50:23.007Z,13.57
2018-04-13T07:51:27.178Z,18.00
2018-04-13T07:52:31.942Z,17.67
2018-04-13T07:53:36.298Z,17.45
2018-04-13T07:54:40.646Z,12.82
2018-04-13T07:55:44.661Z,15.68
2018-04-13T07:56:51.481Z,15.73
2018-04-13T07:57:55.921Z,13.98
2018-04-13T07:58:59.998Z,15.55
2018-04-13T08:00:04.887Z,13.85
2018-04-13T08:01:09.710Z,16.58
2018-04-13T08:02:14.132Z,15.65
2018-04-13T08:03:19.160Z,16.55
2018-04-13T08:04:23.317Z,14.82
2018-04-13T08:05:28.140Z,12.25
2018-04-13T08:06:33.611Z,18.83
2018-04-13T08:07:37.915Z,15.65
2018-04-13T08:08:42.239Z,16.58
2018-04-13T08:09:46.718Z,16.98
2018-04-13T08:10:50.781Z,20.00
2018-04-13T08:11:55.570Z,14.95
2018-04-13T08:12:59.932Z,14.50
2018-04-13T08:14:05.231Z,16.73
2018-04-13T08:15:09.280Z,15.23
2018-04-13T08:16:14.266Z,15.20
2018-04-13T08:17:19.807Z,17.98
2018-04-13T08:18:26.100Z,14.68
2018-04-13T08:19:30.834Z,21.52
2018-04-13T08:20:34.949Z,15.82
2018-04-13T08:21:39.976Z,17.70
2018-04-13T08:22:44.928Z,16.30
2018-04-13T08:23:49.761Z,21.00
2018-04-13T08:24:55.400Z,18.12
2018-04-13T08:26:03.601Z,20.77
2018-04-13T08:27:07.739Z,16.80
2018-04-13T08:28:14.689Z,18.27
2018-04-13T08:29:19.062Z,17.17
2018-04-13T08:30:24.481Z,21.40
2018-04-13T08:31:29.149Z,18.75
2018-04-13T08:32:33.226Z,21.10
2018-04-13T08:33:38.929Z,22.52
2018-04-13T08:34:43.880Z,16.90
2018-04-13T08:35:48.714Z,21.87
2018-04-13T08:36:54.358Z,17.65
2018-04-13T08:37:59.204Z,17.80
2018-04-13T08:39:05.292Z,21.67
2018-04-13T08:40:09.347Z,20.48
2018-04-13T08:41:13.383Z,19.62
2018-04-13T08:42:17.811Z,19.08
2018-04-13T08:43:21.986Z,21.00
2018-04-13T08:44:26.919Z,20.05
2018-04-13T08:45:31.022Z,26.20
2018-04-13T08:46:35.336Z,19.10
2018-04-13T08:47:39.349Z,18.10
2018-04-13T08:48:43.386Z,21.77
2018-04-13T08:49:47.430Z,20.90
2018-04-13T08:50:52.257Z,21.95
2018-04-13T08:51:56.815Z,22.17
2018-04-13T08:53:01.886Z,22.20
2018-04-13T08:54:06.937Z,24.08
2018-04-13T08:55:10.967Z,22.60
2018-04-13T08:56:15.008Z,23.58
2018-04-13T08:57:18.998Z,21.45
2018-04-13T08:58:26.414Z,17.87
2018-04-13T08:59:31.806Z,24.35
2018-04-13T09:00:37.480Z,23.60
2018-04-13T09:01:42.380Z,20.25
2018-04-13T09:02:47.335Z,21.87
2018-04-13T09:03:52.630Z,23.62
2018-04-13T09:04:57.248Z,22.27
2018-04-13T09:06:01.334Z,22.40
2018-04-13T09:07:07.375Z,22.35
2018-04-13T09:08:12.364Z,22.73
2018-04-13T09:09:17.600Z,25.35
2018-04-13T09:10:23.303Z,21.87
2018-04-13T09:11:28.490Z,24.15
2018-04-13T09:12:33.203Z,23.05
2018-04-13T09:13:37.331Z,22.98
2018-04-13T09:14:41.609Z,28.08
2018-04-13T09:17:05.919Z,30.20
2018-04-13T09:18:09.966Z,27.48
2018-04-13T09:19:15.598Z,34.22
2018-04-13T09:20:19.702Z,26.67
2018-04-13T09:21:31.406Z,30.23
2018-04-13T09:22:36.469Z,25.92
2018-04-13T09:23:40.522Z,30.55
2018-04-13T09:24:44.613Z,32.22
2018-04-13T09:25:48.710Z,30.00
2018-04-13T09:26:53.802Z,29.17
2018-04-13T09:27:57.848Z,26.83
2018-04-13T09:29:03.788Z,30.20
2018-04-13T09:30:08.650Z,30.85
2018-04-13T09:31:14.382Z,29.02
2018-04-13T09:32:18.461Z,31.37
2018-04-13T09:33:23.365Z,28.67
2018-04-13T09:34:28.151Z,31.95
2018-04-13T09:35:33.996Z,33.28
2018-04-13T09:36:38.049Z,31.40
2018-04-13T09:37:42.298Z,32.42
2018-04-13T09:38:46.353Z,36.35
2018-04-13T09:39:51.813Z,36.08
2018-04-13T09:40:58.774Z,33.25
2018-04-13T09:42:03.538Z,38.15
2018-04-13T09:43:08.628Z,33.63
2018-04-13T09:44:12.682Z,36.10
2018-04-13T09:45:17.744Z,38.67
2018-04-13T09:46:22.278Z,36.83
2018-04-13T09:47:28.422Z,38.63
2018-04-13T09:48:32.588Z,32.90
2018-04-13T09:49:38.428Z,35.20
2018-04-13T09:50:42.686Z,35.88
2018-04-13T09:51:46.707Z,35.70
2018-04-13T09:52:50.714Z,39.38
2018-04-13T09:53:55.982Z,33.22
2018-04-13T09:55:00.615Z,42.78
2018-04-13T09:56:05.408Z,39.50
2018-04-13T09:57:11.061Z,39.10
2018-04-13T09:58:17.209Z,39.33
2018-04-13T09:59:21.884Z,40.90
2018-04-13T10:00:30.602Z,42.30
2018-04-13T10:01:38.804Z,35.33
2018-04-13T10:02:44.414Z,40.00
2018-04-13T10:03:52.998Z,44.10
2018-04-13T10:04:59.978Z,42.67
2018-04-13T10:06:05.831Z,41.42
2018-04-13T10:07:09.962Z,40.72
2018-04-13T10:08:14.001Z,40.78
2018-04-13T10:09:18.061Z,43.30
2018-04-13T10:10:23.270Z,38.88
2018-04-13T10:11:27.316Z,46.20
2018-04-13T10:12:33.035Z,44.13
2018-04-13T10:13:38.251Z,50.67
2018-04-13T10:14:42.592Z,49.47
2018-04-13T10:15:46.651Z,43.70
2018-04-13T10:16:51.326Z,43.20
2018-04-13T10:17:55.442Z,44.28
2018-04-13T10:18:59.810Z,40.30
2018-04-13T10:20:05.707Z,46.37
2018-04-13T10:21:09.836Z,40.63
2018-04-13T10:22:14.714Z,38.33
2018-04-13T10:23:18.983Z,46.78
2018-04-13T10:24:24.396Z,42.90
2018-04-13T10:25:29.216Z,44.08
2018-04-13T10:26:33.794Z,42.40
2018-04-13T10:27:38.757Z,41.53
2018-04-13T10:28:44.478Z,47.95
2018-04-13T10:29:49.594Z,46.33
2018-04-13T10:30:54.071Z,42.13
2018-04-13T10:32:01.725Z,42.13
2018-04-13T10:33:08.662Z,46.92
2018-04-13T10:34:13.613Z,41.75
2018-04-13T10:35:18.394Z,44.85
2018-04-13T10:36:23.634Z,52.25
2018-04-13T10:37:27.721Z,44.03
2018-04-13T10:38:34.102Z,44.58
2018-04-13T10:39:38.198Z,40.92
2018-04-13T10:40:43.417Z,40.67
2018-04-13T10:41:50.121Z,44.70
2018-04-13T10:43:57.321Z,46.37
2018-04-13T10:45:01.401Z,48.90
2018-04-13T10:46:07.931Z,44.67
2018-04-13T10:47:13.796Z,43.22
2018-04-13T10:48:18.865Z,48.63
2018-04-13T10:49:24.002Z,40.88
2018-04-13T10:50:30.015Z,45.40
2018-04-13T10:51:36.549Z,40.67
2018-04-13T10:52:41.420Z,45.17
2018-04-13T10:53:47.299Z,47.72
2018-04-13T10:54:53.027Z,43.67
2018-04-13T10:55:58.343Z,43.00
2018-04-13T10:57:04.747Z,44.33
2018-04-13T10:58:09.406Z,43.65
2018-04-13T10:59:14.086Z,38.38
2018-04-13T11:00:19.670Z,43.80
2018-04-13T11:01:24.615Z,44.88
2018-04-13T11:02:29.477Z,47.75
2018-04-13T11:03:35.418Z,49.47
2018-04-13T11:04:40.219Z,44.20
2018-04-13T11:05:44.213Z,42.58
2018-04-13T11:06:49.669Z,43.15
2018-04-13T11:07:54.520Z,42.92
2018-04-13T11:08:58.597Z,44.35
2018-04-13T11:10:03.461Z,37.75
2018-04-13T11:11:08.561Z,44.38
2018-04-13T11:12:12.721Z,42.92
2018-04-13T11:13:18.533Z,41.75
2018-04-13T11:14:24.508Z,41.70
2018-04-13T11:15:30.451Z,38.72
2018-04-13T11:16:34.524Z,39.40
2018-04-13T11:17:39.202Z,43.83
2018-04-13T11:18:44.319Z,42.50
2018-04-13T11:19:49.174Z,44.25
2018-04-13T11:20:53.195Z,45.03
2018-04-13T11:21:57.881Z,40.58
2018-04-13T11:23:02.915Z,41.25
2018-04-13T11:24:10.415Z,42.28
2018-04-13T11:25:15.131Z,45.67
2018-04-13T11:26:21.201Z,39.13
2018-04-13T11:27:26.544Z,44.60
2018-04-13T11:28:33.928Z,41.50
2018-04-13T11:29:39.486Z,42.95
2018-04-13T11:30:44.212Z,42.83
2018-04-13T11:31:49.866Z,40.85
2018-04-13T11:32:54.701Z,41.10
2018-04-13T11:34:03.174Z,38.50
2018-04-13T11:35:10.264Z,38.42
2018-04-13T11:36:20.254Z,35.63
2018-04-13T11:37:24.664Z,38.00
2018-04-13T11:39:48.201Z,38.67
2018-04-13T11:40:55.173Z,39.35
2018-04-13T11:42:00.915Z,38.45
2018-04-13T11:43:07.048Z,37.85
2018-04-13T11:44:12.894Z,35.15
2018-04-13T11:45:18.091Z,38.97
2018-04-13T11:46:22.511Z,37.05
2018-04-13T11:47:28.692Z,37.42
2018-04-13T11:48:33.447Z,36.00
2018-04-13T11:49:40.291Z,37.15
2018-04-13T11:50:47.562Z,37.08
2018-04-13T11:51:53.446Z,35.55
2018-04-13T11:52:59.996Z,30.52
2018-04-13T11:54:05.731Z,32.90
2018-04-13T11:55:10.708Z,35.15
2018-04-13T11:56:15.742Z,39.15
2018-04-13T11:57:20.533Z,33.25
2018-04-13T11:58:25.651Z,36.33
2018-04-13T11:59:31.759Z,31.55
2018-04-13T12:00:35.844Z,34.63
2018-04-13T12:01:41.469Z,33.80
2018-04-13T12:02:47.542Z,31.27
2018-04-13T12:03:53.613Z,39.72
2018-04-13T12:04:58.587Z,33.05
2018-04-13T12:06:04.435Z,31.27
2018-04-13T12:07:09.446Z,35.55
2018-04-13T12:08:15.659Z,33.55
2018-04-13T12:09:21.699Z,32.22
2018-04-13T12:10:28.668Z,31.60
2018-04-13T12:11:35.319Z,32.03
2018-04-13T12:12:39.590Z,32.65
2018-04-13T12:13:43.988Z,31.85
2018-04-13T12:14:50.161Z,36.28
2018-04-13T12:15:56.307Z,33.42
2018-04-13T12:17:00.369Z,29.75
2018-04-13T12:18:05.101Z,29.25
2018-04-13T12:19:09.440Z,31.42
2018-04-13T12:20:15.625Z,30.37
2018-04-13T12:21:22.476Z,30.73
2018-04-13T12:22:28.328Z,27.67
2018-04-13T12:23:32.398Z,31.25
2018-04-13T12:24:39.248Z,28.38
2018-04-13T12:25:44.417Z,24.80
2018-04-13T12:26:48.474Z,28.75
2018-04-13T12:27:53.401Z,29.15
2018-04-13T12:28:57.487Z,28.33
2018-04-13T12:30:03.688Z,28.42
2018-04-13T12:31:08.683Z,29.20
2018-04-13T12:32:14.598Z,29.17
2018-04-13T12:33:18.598Z,28.27
2018-04-13T12:34:23.391Z,25.37
2018-04-13T12:35:28.276Z,31.70
2018-04-13T12:36:33.563Z,33.35
2018-04-13T12:37:37.570Z,30.15
2018-04-13T12:38:42.351Z,28.30
2018-04-13T12:39:46.625Z,28.25
2018-04-13T12:40:52.516Z,26.15
2018-04-13T12:41:59.812Z,26.27
2018-04-13T12:43:05.180Z,25.45
2018-04-13T12:44:09.612Z,31.67
2018-04-13T12:45:15.488Z,24.85
2018-04-13T12:46:23.484Z,24.80
2018-04-13T12:47:28.316Z,25.98
2018-04-13T12:48:32.669Z,27.92
2018-04-13T12:49:37.329Z,25.08
2018-04-13T12:50:44.146Z,25.65
2018-04-13T12:51:49.583Z,26.35
2018-04-13T12:52:55.791Z,24.02
2018-04-13T12:54:00.907Z,23.50
2018-04-13T12:55:06.253Z,26.12
2018-04-13T12:56:11.455Z,27.33
2018-04-13T12:57:18.062Z,19.52
2018-04-13T12:58:24.136Z,25.48
2018-04-13T12:59:29.075Z,28.20
2018-04-13T13:00:33.209Z,27.52
2018-04-13T13:01:37.294Z,24.75
2018-04-13T13:02:42.060Z,25.80
2018-04-13T13:03:46.752Z,21.90
2018-04-13T13:04:52.684Z,23.70
2018-04-13T13:05:59.444Z,24.80
2018-04-13T13:07:08.728Z,22.40
2018-04-13T13:08:15.337Z,22.05
2018-04-13T13:09:20.742Z,24.73
2018-04-13T13:10:25.631Z,23.60
2018-04-13T13:11:31.542Z,21.08
2018-04-13T13:12:35.618Z,23.17
2018-04-13T13:13:41.009Z,22.37
2018-04-13T13:14:48.916Z,19.92
2018-04-13T13:15:53.174Z,22.37
2018-04-13T13:16:58.116Z,20.95
2018-04-13T13:18:03.600Z,24.65
2018-04-13T13:19:10.021Z,22.33
2018-04-13T13:20:15.785Z,25.40
2018-04-13T13:21:22.518Z,21.27
2018-04-13T13:24:33.635Z,19.15
2018-04-13T13:25:41.187Z,18.95
2018-04-13T13:26:47.461Z,18.05
2018-04-13T13:27:52.263Z,22.60
2018-04-13T13:28:56.979Z,19.60
2018-04-13T13:30:02.321Z,21.12
2018-04-13T13:31:06.573Z,16.92
2018-04-13T13:32:11.542Z,18.48
2018-04-13T13:33:15.854Z,20.60
2018-04-13T13:34:20.168Z,21.10
2018-04-13T13:35:25.931Z,23.73
2018-04-13T13:36:31.140Z,19.65
2018-04-13T13:37:35.829Z,17.27
2018-04-13T13:38:40.207Z,17.12
2018-04-13T13:39:45.326Z,20.00
2018-04-13T13:40:51.041Z,14.80
2018-04-13T13:42:00.085Z,18.27
2018-04-13T13:43:07.606Z,17.48
2018-04-13T13:44:12.484Z,17.40
2018-04-13T13:45:17.206Z,18.37
2018-04-13T13:46:22.118Z,18.83
2018-04-13T13:47:29.490Z,16.45
2018-04-13T13:48:35.582Z,15.80
2018-04-13T13:49:40.441Z,16.45
2018-04-13T13:50:45.498Z,17.92
2018-04-13T13:51:51.700Z,18.95
2018-04-13T13:53:05.718Z,16.83
2018-04-13T13:54:09.820Z,18.70
2018-04-13T13:55:15.696Z,16.67
2018-04-13T13:56:21.117Z,18.05
2018-04-13T13:57:25.136Z,15.32
2018-04-13T13:58:29.615Z,23.10
2018-04-13T13:59:33.988Z,21.05
2018-04-13T14:00:38.661Z,14.50
2018-04-13T14:01:42.739Z,17.45
2018-04-13T14:02:47.254Z,15.73
2018-04-13T14:03:52.677Z,14.80
2018-04-13T14:04:57.337Z,14.68
2018-04-13T14:06:02.291Z,17.48
2018-04-13T14:07:09.170Z,15.02
2018-04-13T14:08:14.095Z,16.90
2018-04-13T14:09:19.112Z,13.85